createdAt,value
2019-02-11T00:02:09.912Z,21.50
2019-02-11T00:04:42.807Z,22.07
2019-02-11T00:07:26.376Z,21.03
2019-02-11T00:10:02.353Z,21.50
2019-02-11T00:12:40.252Z,21.03
2019-02-11T00:15:13.560Z,21.30
2019-02-11T00:17:49.214Z,19.87
2019-02-11T00:20:26.737Z,21.87
2019-02-11T00:23:03.769Z,19.37
2019-02-11T00:28:38.231Z,20.00
2019-02-11T00:31:18.667Z,19.73
2019-02-11T00:33:52.879Z,19.77
2019-02-11T00:36:35.463Z,21.27
2019-02-11T00:39:11.429Z,20.83
2019-02-11T00:47:36.028Z,20.80
2019-02-11T00:56:07.385Z,20.77
2019-02-11T00:58:58.905Z,18.20
2019-02-11T01:02:11.416Z,20.13
2019-02-11T01:04:28.446Z,20.10
2019-02-11T01:07:07.686Z,19.87
2019-02-11T01:09:50.718Z,20.33
2019-02-11T01:12:22.790Z,19.33
2019-02-11T01:15:16.310Z,21.03
2019-02-11T01:20:36.789Z,21.00
2019-02-11T01:23:15.252Z,19.03
2019-02-11T01:25:56.909Z,20.33
2019-02-11T01:31:36.653Z,20.23
2019-02-11T01:37:10.876Z,20.00
2019-02-11T01:39:49.759Z,19.23
2019-02-11T01:42:21.573Z,20.30
2019-02-11T01:45:00.373Z,21.03
2019-02-11T01:47:36.612Z,20.17
2019-02-11T01:50:09.392Z,20.50
2019-02-11T01:52:45.468Z,21.03
2019-02-11T01:55:34.496Z,21.07
2019-02-11T01:58:08.568Z,20.23
2019-02-11T02:00:45.649Z,20.63
2019-02-11T02:03:32.946Z,20.77
2019-02-11T02:06:14.487Z,21.60
2019-02-11T02:08:55.252Z,21.13
2019-02-11T02:11:35.149Z,22.13
2019-02-11T02:17:07.065Z,21.83
2019-02-11T02:19:41.405Z,20.83
2019-02-11T02:22:15.824Z,21.23
2019-02-11T02:24:49.129Z,22.70
2019-02-11T02:27:30.110Z,20.00
2019-02-11T02:30:17.217Z,23.30
2019-02-11T02:32:45.135Z,22.00
2019-02-11T02:35:22.288Z,24.07
2019-02-11T02:38:03.504Z,23.67
2019-02-11T02:40:53.241Z,22.57
2019-02-11T02:43:27.659Z,23.87
2019-02-11T02:46:00.838Z,22.57
2019-02-11T02:48:33.374Z,23.73
2019-02-11T02:51:09.165Z,24.30
2019-02-11T02:53:42.296Z,23.83
2019-02-11T02:56:16.349Z,24.03
2019-02-11T02:58:45.082Z,25.10
2019-02-11T03:01:17.143Z,24.97
2019-02-11T03:03:49.409Z,25.57
2019-02-11T03:06:22.423Z,24.53
2019-02-11T03:08:51.778Z,24.30
2019-02-11T03:11:25.405Z,25.10
2019-02-11T03:14:04.938Z,24.83
2019-02-11T03:16:29.037Z,24.77
2019-02-11T03:18:59.501Z,25.13
2019-02-11T03:21:32.954Z,25.97
2019-02-11T03:24:08.241Z,25.33
2019-02-11T03:26:38.946Z,26.27
2019-02-11T03:29:12.712Z,25.93
2019-02-11T03:31:44.606Z,26.77
2019-02-11T03:34:17.637Z,27.13
2019-02-11T03:36:52.327Z,26.83
2019-02-11T03:39:28.527Z,27.83
2019-02-11T03:42:02.075Z,26.87
2019-02-11T03:44:31.325Z,27.43
2019-02-11T03:47:07.642Z,29.13
2019-02-11T03:49:48.315Z,27.37
2019-02-11T03:52:23.554Z,27.40
2019-02-11T03:55:05.726Z,28.07
2019-02-11T03:57:35.045Z,25.87
2019-02-11T04:00:06.087Z,26.27
2019-02-11T04:02:39.526Z,28.47
2019-02-11T04:05:14.861Z,27.57
2019-02-11T04:07:50.626Z,28.60
2019-02-11T04:10:27.512Z,27.20
2019-02-11T04:13:00.736Z,29.30
2019-02-11T04:16:03.444Z,27.93
2019-02-11T04:18:11.173Z,28.97
2019-02-11T04:20:41.609Z,28.07
2019-02-11T04:23:20.034Z,27.83
2019-02-11T04:26:04.982Z,27.23
2019-02-11T04:28:38.569Z,28.37
2019-02-11T04:31:09.900Z,29.97
2019-02-11T04:33:45.711Z,29.50
2019-02-11T04:36:18.866Z,29.10
2019-02-11T04:38:59.028Z,29.37
2019-02-11T04:41:47.420Z,28.87
2019-02-11T04:44:22.751Z,29.23
2019-02-11T04:47:01.733Z,28.87
2019-02-11T04:49:38.729Z,26.73
2019-02-11T04:52:11.766Z,26.67
2019-02-11T04:54:45.118Z,29.87
2019-02-11T04:57:21.470Z,27.90
2019-02-11T04:59:53.184Z,28.63
2019-02-11T05:02:27.422Z,29.33
2019-02-11T05:05:02.632Z,28.33
2019-02-11T05:07:38.356Z,28.47
2019-02-11T05:10:18.376Z,26.77
2019-02-11T05:12:49.967Z,29.47
2019-02-11T05:15:24.266Z,30.43
2019-02-11T05:20:49.562Z,28.40
2019-02-11T05:23:28.005Z,28.67
2019-02-11T05:26:06.580Z,28.13
2019-02-11T05:28:54.772Z,29.97
2019-02-11T05:31:34.103Z,27.57
2019-02-11T05:34:10.887Z,28.07
2019-02-11T05:36:47.169Z,27.27
2019-02-11T05:39:38.080Z,25.67
2019-02-11T05:42:11.247Z,26.93
2019-02-11T05:50:35.531Z,26.20
2019-02-11T06:01:57.438Z,24.03
2019-02-11T06:04:34.012Z,21.83
2019-02-11T06:07:25.535Z,22.00
2019-02-11T06:09:56.707Z,19.83
2019-02-11T06:12:39.500Z,20.70
2019-02-11T06:15:10.268Z,22.50
2019-02-11T06:17:47.103Z,21.60
2019-02-11T06:20:27.395Z,21.60
2019-02-11T06:23:16.424Z,22.83
2019-02-11T06:25:56.507Z,21.13
2019-02-11T06:28:40.530Z,20.30
2019-02-11T06:31:24.384Z,21.80
2019-02-11T06:34:04.887Z,21.20
2019-02-11T06:36:37.038Z,20.07
2019-02-11T06:39:11.304Z,18.90
2019-02-11T06:41:45.556Z,21.67
2019-02-11T06:44:17.500Z,20.30
2019-02-11T06:46:49.919Z,19.23
2019-02-11T06:49:34.952Z,21.83
2019-02-11T06:52:06.054Z,20.87
2019-02-11T06:54:40.820Z,19.67
2019-02-11T06:57:13.163Z,18.30
2019-02-11T06:59:49.937Z,20.37
2019-02-11T07:02:23.760Z,19.83
2019-02-11T07:04:58.732Z,19.97
2019-02-11T07:07:28.722Z,18.30
2019-02-11T07:10:01.034Z,16.57
2019-02-11T07:12:33.135Z,17.13
2019-02-11T07:15:09.469Z,16.20
2019-02-11T07:17:43.688Z,16.83
2019-02-11T07:20:13.145Z,18.63
2019-02-11T07:22:45.472Z,17.43
2019-02-11T07:25:19.022Z,16.60
2019-02-11T07:33:29.188Z,16.13
2019-02-11T07:36:02.301Z,17.07
2019-02-11T07:38:33.734Z,16.03
2019-02-11T07:44:06.328Z,13.97
2019-02-11T07:49:20.037Z,14.47
2019-02-11T07:51:54.467Z,12.60
2019-02-11T07:54:29.618Z,13.10
2019-02-11T07:57:04.638Z,12.83
2019-02-11T07:59:37.448Z,13.53
2019-02-11T08:05:20.810Z,13.40
2019-02-11T08:07:53.985Z,12.27
2019-02-11T08:10:23.660Z,12.60
2019-02-11T08:12:54.998Z,12.00
2019-02-11T08:15:38.607Z,11.17
2019-02-11T08:18:06.375Z,11.53
2019-02-11T08:20:37.791Z,11.13
2019-02-11T08:23:13.601Z,11.60
2019-02-11T08:25:42.856Z,10.40
2019-02-11T08:28:19.553Z,11.53
2019-02-11T08:30:53.136Z,10.93
2019-02-11T08:33:24.386Z,10.30
2019-02-11T08:35:54.866Z,10.93
2019-02-11T08:38:24.155Z,9.70
2019-02-11T08:40:53.504Z,10.07
2019-02-11T08:43:24.205Z,10.00
2019-02-11T08:45:53.887Z,8.83
2019-02-11T08:48:27.154Z,9.57
2019-02-11T08:51:05.451Z,8.27
2019-02-11T08:53:35.384Z,8.67
2019-02-11T08:56:06.197Z,9.90
2019-02-11T08:58:40.492Z,8.77
2019-02-11T09:01:22.215Z,8.93
2019-02-11T09:04:01.827Z,9.27
2019-02-11T09:06:26.852Z,8.60
2019-02-11T09:08:55.674Z,8.43
2019-02-11T09:11:25.233Z,8.93
2019-02-11T09:13:54.807Z,8.20
2019-02-11T09:16:24.718Z,9.30
2019-02-11T09:18:53.923Z,8.37
2019-02-11T09:21:24.218Z,8.30
2019-02-11T09:23:56.797Z,6.97
2019-02-11T09:26:28.497Z,7.63
2019-02-11T09:29:01.098Z,6.53
2019-02-11T09:31:33.795Z,7.30
2019-02-11T09:34:02.989Z,8.13
2019-02-11T09:36:38.029Z,10.90
2019-02-11T09:39:10.465Z,6.10
2019-02-11T09:41:44.135Z,6.83
2019-02-11T09:44:29.465Z,6.90
2019-02-11T09:46:56.909Z,6.63
2019-02-11T09:49:29.987Z,6.97
2019-02-11T09:52:00.290Z,6.00
2019-02-11T09:54:32.420Z,5.23
2019-02-11T09:57:06.312Z,5.60
2019-02-11T09:59:36.572Z,5.13
2019-02-11T10:02:07.237Z,5.17
2019-02-11T10:07:28.793Z,5.53
2019-02-11T10:10:14.765Z,5.37
2019-02-11T10:12:45.341Z,5.50
2019-02-11T10:15:16.799Z,5.33
2019-02-11T10:17:47.742Z,4.57
2019-02-11T10:20:19.024Z,4.50
2019-02-11T10:22:53.568Z,4.83
2019-02-11T10:25:44.709Z,4.87
2019-02-11T10:28:16.400Z,4.80
2019-02-11T10:30:53.135Z,4.73
2019-02-11T10:33:26.378Z,11.13
2019-02-11T10:35:57.746Z,4.20
2019-02-11T10:38:56.666Z,4.63
2019-02-11T10:41:27.521Z,4.47
2019-02-11T10:43:59.440Z,4.23
2019-02-11T10:46:32.392Z,3.73
2019-02-11T10:49:49.049Z,3.90
2019-02-11T10:52:21.494Z,3.07
2019-02-11T10:54:53.853Z,3.73
2019-02-11T10:57:31.296Z,4.13
2019-02-11T11:00:07.628Z,3.47
2019-02-11T11:02:49.094Z,3.23
2019-02-11T11:05:24.171Z,3.70
2019-02-11T11:08:02.461Z,3.20
2019-02-11T11:10:38.576Z,2.40
2019-02-11T11:13:11.632Z,2.90
2019-02-11T11:15:50.442Z,2.80
2019-02-11T11:18:33.293Z,3.70
2019-02-11T11:21:07.105Z,3.17
2019-02-11T11:24:40.072Z,2.90
2019-02-11T11:26:39.886Z,2.97
2019-02-11T11:29:14.090Z,2.70
2019-02-11T11:34:46.124Z,2.87
2019-02-11T11:37:20.636Z,3.27
2019-02-11T11:39:55.978Z,3.37
2019-02-11T11:42:42.064Z,3.17
2019-02-11T11:45:22.837Z,3.17
2019-02-11T11:47:59.751Z,3.10
2019-02-11T11:50:31.707Z,3.10
2019-02-11T11:53:07.665Z,3.03
2019-02-11T11:55:49.399Z,6.57
2019-02-11T11:58:28.351Z,2.80
2019-02-11T12:01:00.894Z,3.20
2019-02-11T12:03:33.800Z,3.07
2019-02-11T12:06:13.042Z,2.67
2019-02-11T12:08:53.491Z,3.27
2019-02-11T12:14:17.381Z,3.33
2019-02-11T12:16:56.976Z,3.67
2019-02-11T12:19:24.820Z,3.27
2019-02-11T12:22:01.110Z,3.90
2019-02-11T12:24:40.673Z,4.07
2019-02-11T12:27:29.111Z,3.23
2019-02-11T12:33:12.325Z,2.90
2019-02-11T12:35:48.721Z,4.30
2019-02-11T12:38:35.532Z,4.70
2019-02-11T12:41:08.858Z,4.90
2019-02-11T12:43:42.631Z,5.63
2019-02-11T12:46:39.192Z,8.67
2019-02-11T12:49:14.067Z,6.17
2019-02-11T12:51:47.949Z,7.83
2019-02-11T12:55:08.707Z,7.57
2019-02-11T12:57:40.880Z,8.33
2019-02-11T13:00:37.110Z,10.33
2019-02-11T13:03:14.014Z,9.63
2019-02-11T13:09:53.505Z,8.50
2019-02-11T13:12:08.100Z,8.30
2019-02-11T13:15:09.571Z,9.23
2019-02-11T13:17:54.550Z,9.10
2019-02-11T13:20:31.021Z,8.90
2019-02-11T13:23:08.173Z,7.77
2019-02-11T13:28:37.727Z,9.00
2019-02-11T13:34:10.694Z,10.40
2019-02-11T13:36:54.514Z,9.20
2019-02-11T13:39:43.954Z,8.90
2019-02-11T13:42:17.379Z,8.27
2019-02-11T13:45:16.424Z,8.03
2019-02-11T13:48:00.363Z,8.33
2019-02-11T14:09:17.114Z,9.43
2019-02-11T14:36:42.995Z,9.30
2019-02-11T14:39:14.376Z,8.40
2019-02-11T14:41:48.517Z,9.63
2019-02-11T14:44:19.110Z,8.77
2019-02-11T14:46:50.029Z,7.13
2019-02-11T14:49:25.242Z,6.60
2019-02-11T14:51:59.199Z,7.70
2019-02-11T14:54:34.835Z,6.70
2019-02-11T14:57:05.077Z,6.57
2019-02-11T14:59:38.767Z,7.30
2019-02-11T15:02:12.168Z,8.13
2019-02-11T15:04:44.961Z,7.70
2019-02-11T15:07:25.307Z,7.70
2019-02-11T15:10:01.419Z,7.63
2019-02-11T15:12:30.479Z,7.50
2019-02-11T15:15:07.692Z,6.97
2019-02-11T15:17:42.960Z,6.80
2019-02-11T15:20:28.948Z,6.27
2019-02-11T15:23:02.760Z,8.13
2019-02-11T15:25:35.751Z,6.27
2019-02-11T15:28:06.844Z,6.83
2019-02-11T15:30:37.664Z,6.70
2019-02-11T15:33:09.607Z,4.73
2019-02-11T15:35:39.702Z,8.40
2019-02-11T15:38:12.248Z,8.67
2019-02-11T15:40:42.996Z,7.73
2019-02-11T15:43:12.371Z,8.40
2019-02-11T15:45:45.656Z,8.50
2019-02-11T15:48:20.245Z,8.00
2019-02-11T15:50:53.235Z,8.50
2019-02-11T15:53:28.241Z,8.43
2019-02-11T15:56:06.552Z,8.23
2019-02-11T15:58:33.610Z,8.67
2019-02-11T16:01:22.808Z,9.17
2019-02-11T16:03:57.445Z,9.30
2019-02-11T16:06:38.111Z,8.20
2019-02-11T16:09:10.574Z,9.63
2019-02-11T16:11:45.523Z,9.17
2019-02-11T16:14:20.195Z,9.23
2019-02-11T16:16:57.890Z,8.53
2019-02-11T16:19:31.673Z,8.27
2019-02-11T16:22:04.151Z,8.67
2019-02-11T16:24:33.743Z,7.90
2019-02-11T16:27:04.680Z,8.97
2019-02-11T16:29:37.626Z,8.83
2019-02-11T16:32:10.934Z,7.13
2019-02-11T16:37:36.060Z,8.13
2019-02-11T16:40:08.416Z,8.43
2019-02-11T16:42:47.669Z,8.73
2019-02-11T16:45:19.918Z,7.77
2019-02-11T16:47:51.708Z,8.77
2019-02-11T16:50:27.191Z,8.27
2019-02-11T16:52:59.885Z,7.40
2019-02-11T16:55:34.934Z,7.67
2019-02-11T16:58:06.708Z,8.50
2019-02-11T17:00:38.575Z,8.13
2019-02-11T17:03:11.837Z,7.37
2019-02-11T17:05:42.990Z,8.50
2019-02-11T17:08:51.849Z,8.67
2019-02-11T17:11:28.738Z,8.80
2019-02-11T17:14:01.555Z,7.77
2019-02-11T17:16:42.196Z,9.17
2019-02-11T17:19:17.074Z,7.30
2019-02-11T17:21:54.547Z,10.60
2019-02-11T18:43:31.546Z,6.20
2019-02-11T18:46:02.025Z,6.17
2019-02-11T18:51:37.854Z,6.70
2019-02-11T18:57:20.309Z,7.10
2019-02-11T19:03:10.518Z,8.20
2019-02-11T19:05:46.165Z,7.57
2019-02-11T19:08:29.596Z,8.07
2019-02-11T19:11:03.187Z,8.40
2019-02-11T19:13:36.830Z,7.77
2019-02-11T19:16:07.725Z,7.43
2019-02-11T19:18:36.594Z,6.23
2019-02-11T19:21:07.140Z,6.90
2019-02-11T19:23:45.777Z,7.40
2019-02-11T19:26:21.120Z,6.67
2019-02-11T19:28:56.112Z,6.50
2019-02-11T19:34:22.460Z,5.43
2019-02-11T19:37:04.971Z,5.23
2019-02-11T19:39:38.164Z,5.13
2019-02-11T19:42:53.106Z,5.60
2019-02-11T19:45:25.051Z,5.53
2019-02-11T19:47:57.094Z,5.87
2019-02-11T19:50:33.772Z,5.60
2019-02-11T19:54:03.495Z,6.30
2019-02-11T19:56:34.234Z,3.70
2019-02-11T20:02:01.245Z,6.00
2019-02-11T20:04:32.328Z,6.23
2019-02-11T20:07:10.817Z,6.27
2019-02-11T20:09:59.938Z,5.83
2019-02-11T20:12:32.814Z,6.13
2019-02-11T20:18:19.185Z,6.43
2019-02-11T20:21:09.220Z,6.40
2019-02-11T20:23:48.286Z,7.00
2019-02-11T23:46:40.981Z,10.13
2019-02-11T23:52:08.212Z,10.70
2019-02-11T23:54:40.573Z,11.03
2019-02-11T23:57:21.048Z,10.07
2019-02-11T23:59:50.411Z,10.90
